sensor_id;sensor_type;location;lat;lon;timestamp;pressure;altitude;pressure_sealevel;temperature;humidity
30856;BME280;17570;0.000;0.000;2023-03-08T00:02:26;96177.77;;;13.42;37.74
30856;BME280;17570;0.000;0.000;2023-03-08T00:04:54;96172.08;;;13.39;37.89
30856;BME280;17570;0.000;0.000;2023-03-08T00:07:22;96173.38;;;13.35;37.71
30856;BME280;17570;0.000;0.000;2023-03-08T00:09:49;96170.27;;;13.31;38.25
30856;BME280;17570;0.000;0.000;2023-03-08T00:12:16;96179.70;;;13.32;37.78
30856;BME280;17570;0.000;0.000;2023-03-08T00:14:46;96175.95;;;13.26;37.86
30856;BME280;17570;0.000;0.000;2023-03-08T00:17:14;96174.77;;;13.21;37.67
30856;BME280;17570;0.000;0.000;2023-03-08T00:19:41;96176.05;;;13.17;37.71
30856;BME280;17570;0.000;0.000;2023-03-08T00:22:09;96184.16;;;13.14;37.93
30856;BME280;17570;0.000;0.000;2023-03-08T00:24:37;96181.89;;;13.11;38.09
30856;BME280;17570;0.000;0.000;2023-03-08T00:27:05;96173.91;;;13.12;38.02
30856;BME280;17570;0.000;0.000;2023-03-08T00:29:32;96169.34;;;13.14;37.82
30856;BME280;17570;0.000;0.000;2023-03-08T00:32:00;96168.87;;;13.11;38.21
30856;BME280;17570;0.000;0.000;2023-03-08T00:34:27;96166.91;;;13.13;38.17
30856;BME280;17570;0.000;0.000;2023-03-08T00:36:55;96159.26;;;13.11;38.34
30856;BME280;17570;0.000;0.000;2023-03-08T00:39:22;96167.55;;;13.07;38.90
30856;BME280;17570;0.000;0.000;2023-03-08T00:41:50;96166.05;;;13.04;38.41
30856;BME280;17570;0.000;0.000;2023-03-08T00:44:17;96158.92;;;13.06;38.54
30856;BME280;17570;0.000;0.000;2023-03-08T00:46:45;96160.03;;;13.03;38.63
30856;BME280;17570;0.000;0.000;2023-03-08T00:49:12;96163.78;;;13.01;38.50
30856;BME280;17570;0.000;0.000;2023-03-08T00:51:40;96155.97;;;13.01;38.44
30856;BME280;17570;0.000;0.000;2023-03-08T00:54:08;96166.69;;;12.98;38.57
30856;BME280;17570;0.000;0.000;2023-03-08T00:56:37;96165.88;;;12.97;38.49
30856;BME280;17570;0.000;0.000;2023-03-08T00:59:04;96174.67;;;12.96;38.49
30856;BME280;17570;0.000;0.000;2023-03-08T01:01:32;96168.31;;;12.99;38.39
30856;BME280;17570;0.000;0.000;2023-03-08T01:04:00;96160.16;;;12.94;38.41
30856;BME280;17570;0.000;0.000;2023-03-08T01:06:29;96167.33;;;12.92;38.50
30856;BME280;17570;0.000;0.000;2023-03-08T01:08:56;96155.59;;;12.88;38.45
30856;BME280;17570;0.000;0.000;2023-03-08T01:11:24;96157.38;;;12.87;38.55
30856;BME280;17570;0.000;0.000;2023-03-08T01:13:52;96156.39;;;12.88;38.37
30856;BME280;17570;0.000;0.000;2023-03-08T01:16:31;96158.19;;;12.88;38.20
30856;BME280;17570;0.000;0.000;2023-03-08T01:18:49;96162.72;;;12.86;38.29
30856;BME280;17570;0.000;0.000;2023-03-08T01:21:19;96164.16;;;12.80;38.21
30856;BME280;17570;0.000;0.000;2023-03-08T01:23:47;96154.56;;;12.81;38.18
30856;BME280;17570;0.000;0.000;2023-03-08T01:26:15;96154.05;;;12.77;38.27
30856;BME280;17570;0.000;0.000;2023-03-08T01:28:44;96162.19;;;12.74;38.49
30856;BME280;17570;0.000;0.000;2023-03-08T01:31:12;96158.77;;;12.73;38.33
30856;BME280;17570;0.000;0.000;2023-03-08T01:33:41;96145.89;;;12.72;38.43
30856;BME280;17570;0.000;0.000;2023-03-08T01:36:09;96150.75;;;12.67;38.43
30856;BME280;17570;0.000;0.000;2023-03-08T01:38:37;96149.77;;;12.68;38.82
30856;BME280;17570;0.000;0.000;2023-03-08T01:41:06;96146.69;;;12.64;38.33
30856;BME280;17570;0.000;0.000;2023-03-08T01:43:35;96151.54;;;12.59;38.28
30856;BME280;17570;0.000;0.000;2023-03-08T01:46:06;96146.47;;;12.58;38.41
30856;BME280;17570;0.000;0.000;2023-03-08T01:48:35;96144.33;;;12.53;38.33
30856;BME280;17570;0.000;0.000;2023-03-08T01:51:05;96151.48;;;12.51;38.35
30856;BME280;17570;0.000;0.000;2023-03-08T01:53:34;96142.19;;;12.48;38.36
30856;BME280;17570;0.000;0.000;2023-03-08T01:56:05;96152.76;;;12.47;38.52
30856;BME280;17570;0.000;0.000;2023-03-08T01:58:32;96149.34;;;12.46;38.31
30856;BME280;17570;0.000;0.000;2023-03-08T02:01:00;96155.01;;;12.42;38.35
30856;BME280;17570;0.000;0.000;2023-03-08T02:03:28;96152.05;;;12.37;38.63
30856;BME280;17570;0.000;0.000;2023-03-08T02:05:56;96152.05;;;12.37;38.63
30856;BME280;17570;0.000;0.000;2023-03-08T02:08:24;96149.91;;;12.32;38.58
30856;BME280;17570;0.000;0.000;2023-03-08T02:10:52;96151.83;;;12.30;38.58
30856;BME280;17570;0.000;0.000;2023-03-08T02:13:19;96151.99;;;12.29;38.73
30856;BME280;17570;0.000;0.000;2023-03-08T02:15:47;96152.80;;;12.29;38.54
30856;BME280;17570;0.000;0.000;2023-03-08T02:18:17;96157.65;;;12.24;38.63
30856;BME280;17570;0.000;0.000;2023-03-08T02:20:45;96154.40;;;12.22;38.57
30856;BME280;17570;0.000;0.000;2023-03-08T02:23:20;96153.06;;;12.18;38.43
30856;BME280;17570;0.000;0.000;2023-03-08T02:25:55;96150.14;;;12.21;38.54
30856;BME280;17570;0.000;0.000;2023-03-08T02:28:23;96151.80;;;12.22;38.57
30856;BME280;17570;0.000;0.000;2023-03-08T02:30:52;96154.17;;;12.15;38.64
30856;BME280;17570;0.000;0.000;2023-03-08T02:33:20;96152.70;;;12.13;38.46
30856;BME280;17570;0.000;0.000;2023-03-08T02:35:48;96149.26;;;12.12;38.71
30856;BME280;17570;0.000;0.000;2023-03-08T02:38:17;96147.63;;;12.11;38.68
30856;BME280;17570;0.000;0.000;2023-03-08T02:40:44;96155.89;;;12.07;38.67
30856;BME280;17570;0.000;0.000;2023-03-08T02:43:12;96152.93;;;12.02;38.85
30856;BME280;17570;0.000;0.000;2023-03-08T02:45:39;96155.53;;;12.02;38.60
30856;BME280;17570;0.000;0.000;2023-03-08T02:48:07;96147.89;;;12.00;38.65
30856;BME280;17570;0.000;0.000;2023-03-08T02:50:35;96147.20;;;11.98;38.74
30856;BME280;17570;0.000;0.000;2023-03-08T02:53:03;96156.43;;;11.92;38.91
30856;BME280;17570;0.000;0.000;2023-03-08T02:55:32;96151.09;;;11.94;38.86
30856;BME280;17570;0.000;0.000;2023-03-08T02:58:05;96146.03;;;11.92;38.74
30856;BME280;17570;0.000;0.000;2023-03-08T03:00:33;96148.27;;;11.87;38.74
30856;BME280;17570;0.000;0.000;2023-03-08T03:03:01;96151.73;;;11.60;38.97
30856;BME280;17570;0.000;0.000;2023-03-08T03:05:28;96156.94;;;11.42;39.50
30856;BME280;17570;0.000;0.000;2023-03-08T03:07:57;96155.22;;;11.33;39.76
30856;BME280;17570;0.000;0.000;2023-03-08T03:10:25;96159.13;;;11.37;39.65
30856;BME280;17570;0.000;0.000;2023-03-08T03:12:54;96156.78;;;11.44;39.56
30856;BME280;17570;0.000;0.000;2023-03-08T03:15:23;96158.50;;;11.89;38.97
30856;BME280;17570;0.000;0.000;2023-03-08T03:17:52;96158.05;;;11.93;38.86
30856;BME280;17570;0.000;0.000;2023-03-08T03:20:20;96160.37;;;11.96;38.84
30856;BME280;17570;0.000;0.000;2023-03-08T03:22:47;96164.59;;;11.97;38.69
30856;BME280;17570;0.000;0.000;2023-03-08T03:25:15;96168.45;;;11.93;38.97
30856;BME280;17570;0.000;0.000;2023-03-08T03:27:44;96161.79;;;11.91;39.00
30856;BME280;17570;0.000;0.000;2023-03-08T03:30:12;96164.55;;;11.89;38.86
30856;BME280;17570;0.000;0.000;2023-03-08T03:32:40;96170.15;;;11.49;39.47
30856;BME280;17570;0.000;0.000;2023-03-08T03:35:10;96168.59;;;11.38;39.91
30856;BME280;17570;0.000;0.000;2023-03-08T03:37:37;96177.97;;;11.21;40.34
30856;BME280;17570;0.000;0.000;2023-03-08T03:40:05;96190.91;;;11.31;40.24
30856;BME280;17570;0.000;0.000;2023-03-08T03:42:32;96192.47;;;11.42;40.07
30856;BME280;17570;0.000;0.000;2023-03-08T03:45:02;96187.55;;;11.84;39.33
30856;BME280;17570;0.000;0.000;2023-03-08T03:47:30;96180.27;;;12.06;39.02
30856;BME280;17570;0.000;0.000;2023-03-08T03:49:59;96186.81;;;12.10;38.77
30856;BME280;17570;0.000;0.000;2023-03-08T03:52:28;96194.25;;;12.05;38.98
30856;BME280;17570;0.000;0.000;2023-03-08T03:54:57;96190.47;;;11.99;39.12
30856;BME280;17570;0.000;0.000;2023-03-08T03:57:25;96187.51;;;11.94;39.02
30856;BME280;17570;0.000;0.000;2023-03-08T03:59:53;96191.20;;;11.91;39.04
30856;BME280;17570;0.000;0.000;2023-03-08T04:02:21;96200.64;;;11.92;39.03
30856;BME280;17570;0.000;0.000;2023-03-08T04:04:50;96199.30;;;11.88;39.04
30856;BME280;17570;0.000;0.000;2023-03-08T04:07:19;96204.13;;;11.83;39.05
30856;BME280;17570;0.000;0.000;2023-03-08T04:09:55;96204.52;;;11.43;39.91
30856;BME280;17570;0.000;0.000;2023-03-08T04:12:22;96208.12;;;11.32;40.11
30856;BME280;17570;0.000;0.000;2023-03-08T04:14:51;96211.94;;;11.38;40.01
30856;BME280;17570;0.000;0.000;2023-03-08T04:17:19;96209.19;;;11.39;40.18
30856;BME280;17570;0.000;0.000;2023-03-08T04:19:48;96217.17;;;11.73;39.63
30856;BME280;17570;0.000;0.000;2023-03-08T04:22:16;96218.27;;;11.98;39.60
30856;BME280;17570;0.000;0.000;2023-03-08T04:24:54;96205.31;;;12.07;38.79
30856;BME280;17570;0.000;0.000;2023-03-08T04:27:26;96212.66;;;11.93;39.10
30856;BME280;17570;0.000;0.000;2023-03-08T04:29:54;96207.78;;;11.90;39.42
30856;BME280;17570;0.000;0.000;2023-03-08T04:32:21;96215.14;;;11.95;39.01
30856;BME280;17570;0.000;0.000;2023-03-08T04:34:51;96220.91;;;11.89;39.42
30856;BME280;17570;0.000;0.000;2023-03-08T04:37:20;96220.65;;;11.64;39.15
30856;BME280;17570;0.000;0.000;2023-03-08T04:39:49;96217.73;;;11.49;39.63
30856;BME280;17570;0.000;0.000;2023-03-08T04:42:17;96209.47;;;11.36;39.95
30856;BME280;17570;0.000;0.000;2023-03-08T04:44:45;96217.95;;;11.38;39.98
30856;BME280;17570;0.000;0.000;2023-03-08T04:47:14;96221.36;;;11.39;39.91
30856;BME280;17570;0.000;0.000;2023-03-08T04:49:43;96215.04;;;11.41;40.04
30856;BME280;17570;0.000;0.000;2023-03-08T04:52:11;96216.27;;;11.65;39.77
30856;BME280;17570;0.000;0.000;2023-03-08T04:54:39;96210.83;;;12.04;39.67
30856;BME280;17570;0.000;0.000;2023-03-08T04:57:09;96209.69;;;12.24;40.30
30856;BME280;17570;0.000;0.000;2023-03-08T04:59:36;96212.94;;;12.26;40.34
30856;BME280;17570;0.000;0.000;2023-03-08T05:02:05;96222.05;;;12.22;40.43
30856;BME280;17570;0.000;0.000;2023-03-08T05:04:34;96224.12;;;12.18;40.06
30856;BME280;17570;0.000;0.000;2023-03-08T05:07:05;96233.02;;;12.16;40.11
30856;BME280;17570;0.000;0.000;2023-03-08T05:09:32;96235.05;;;12.22;40.56
30856;BME280;17570;0.000;0.000;2023-03-08T05:12:00;96239.48;;;12.30;41.68
30856;BME280;17570;0.000;0.000;2023-03-08T05:14:47;96239.03;;;12.34;41.70
30856;BME280;17570;0.000;0.000;2023-03-08T05:17:13;96238.47;;;12.22;41.55
30856;BME280;17570;0.000;0.000;2023-03-08T05:19:43;96234.66;;;12.17;41.19
30856;BME280;17570;0.000;0.000;2023-03-08T05:22:13;96228.95;;;12.13;40.94
30856;BME280;17570;0.000;0.000;2023-03-08T05:24:42;96233.19;;;12.14;40.61
30856;BME280;17570;0.000;0.000;2023-03-08T05:27:11;96234.61;;;12.09;40.17
30856;BME280;17570;0.000;0.000;2023-03-08T05:29:39;96232.30;;;12.06;40.16
30856;BME280;17570;0.000;0.000;2023-03-08T05:32:09;96242.17;;;12.02;40.14
30856;BME280;17570;0.000;0.000;2023-03-08T05:34:36;96237.28;;;11.99;40.02
30856;BME280;17570;0.000;0.000;2023-03-08T05:37:05;96240.02;;;11.97;40.03
30856;BME280;17570;0.000;0.000;2023-03-08T05:39:33;96247.97;;;11.96;40.13
30856;BME280;17570;0.000;0.000;2023-03-08T05:42:03;96241.14;;;11.95;40.12
30856;BME280;17570;0.000;0.000;2023-03-08T05:44:32;96251.83;;;11.92;40.11
30856;BME280;17570;0.000;0.000;2023-03-08T05:47:01;96248.27;;;11.93;40.21
30856;BME280;17570;0.000;0.000;2023-03-08T05:49:29;96249.08;;;11.93;40.60
30856;BME280;17570;0.000;0.000;2023-03-08T05:51:57;96247.16;;;11.95;40.62
30856;BME280;17570;0.000;0.000;2023-03-08T05:54:25;96256.59;;;11.96;40.77
30856;BME280;17570;0.000;0.000;2023-03-08T05:56:54;96258.09;;;11.99;41.15
30856;BME280;17570;0.000;0.000;2023-03-08T05:59:23;96262.69;;;12.05;41.26
30856;BME280;17570;0.000;0.000;2023-03-08T06:01:53;96261.59;;;12.08;41.56
30856;BME280;17570;0.000;0.000;2023-03-08T06:04:25;96266.19;;;12.14;41.52
30856;BME280;17570;0.000;0.000;2023-03-08T06:06:53;96266.72;;;12.17;41.44
30856;BME280;17570;0.000;0.000;2023-03-08T06:09:22;96269.69;;;12.22;41.50
30856;BME280;17570;0.000;0.000;2023-03-08T06:11:50;96277.05;;;12.27;41.54
30856;BME280;17570;0.000;0.000;2023-03-08T06:14:18;96280.22;;;12.39;41.71
30856;BME280;17570;0.000;0.000;2023-03-08T06:16:45;96275.25;;;12.45;41.26
30856;BME280;17570;0.000;0.000;2023-03-08T06:19:14;96279.84;;;12.51;41.32
30856;BME280;17570;0.000;0.000;2023-03-08T06:21:42;96285.25;;;12.58;41.11
30856;BME280;17570;0.000;0.000;2023-03-08T06:24:11;96291.66;;;12.64;40.76
30856;BME280;17570;0.000;0.000;2023-03-08T06:26:38;96298.70;;;12.71;40.78
30856;BME280;17570;0.000;0.000;2023-03-08T06:29:06;96302.80;;;12.74;40.83
30856;BME280;17570;0.000;0.000;2023-03-08T06:31:33;96309.70;;;12.83;40.41
30856;BME280;17570;0.000;0.000;2023-03-08T06:34:02;96301.92;;;12.91;40.32
30856;BME280;17570;0.000;0.000;2023-03-08T06:36:32;96302.14;;;12.98;40.01
30856;BME280;17570;0.000;0.000;2023-03-08T06:39:01;96307.55;;;13.05;40.03
30856;BME280;17570;0.000;0.000;2023-03-08T06:41:30;96305.46;;;13.08;39.89
30856;BME280;17570;0.000;0.000;2023-03-08T06:43:58;96301.12;;;13.17;39.74
30856;BME280;17570;0.000;0.000;2023-03-08T06:46:26;96309.16;;;13.23;39.81
30856;BME280;17570;0.000;0.000;2023-03-08T06:48:53;96310.83;;;13.33;39.58
30856;BME280;17570;0.000;0.000;2023-03-08T06:51:22;96311.05;;;13.39;39.69
30856;BME280;17570;0.000;0.000;2023-03-08T06:53:50;96314.00;;;13.44;39.53
30856;BME280;17570;0.000;0.000;2023-03-08T06:56:20;96310.59;;;13.52;39.25
30856;BME280;17570;0.000;0.000;2023-03-08T06:58:50;96314.39;;;13.58;38.72
30856;BME280;17570;0.000;0.000;2023-03-08T07:01:19;96311.96;;;13.64;38.68
30856;BME280;17570;0.000;0.000;2023-03-08T07:03:48;96313.12;;;13.70;38.67
30856;BME280;17570;0.000;0.000;2023-03-08T07:06:18;96318.54;;;13.76;38.84
30856;BME280;17570;0.000;0.000;2023-03-08T07:08:46;96319.02;;;13.80;38.89
30856;BME280;17570;0.000;0.000;2023-03-08T07:11:13;96318.55;;;13.85;39.00
30856;BME280;17570;0.000;0.000;2023-03-08T07:13:43;96316.78;;;13.93;38.76
30856;BME280;17570;0.000;0.000;2023-03-08T07:16:11;96317.80;;;14.00;38.27
30856;BME280;17570;0.000;0.000;2023-03-08T07:18:39;96305.90;;;14.06;38.11
30856;BME280;17570;0.000;0.000;2023-03-08T07:21:07;96315.05;;;14.10;38.68
30856;BME280;17570;0.000;0.000;2023-03-08T07:23:35;96311.14;;;14.14;38.74
30856;BME280;17570;0.000;0.000;2023-03-08T07:26:04;96312.63;;;14.25;38.56
30856;BME280;17570;0.000;0.000;2023-03-08T07:28:31;96307.42;;;14.33;38.44
30856;BME280;17570;0.000;0.000;2023-03-08T07:30:59;96311.67;;;14.42;38.38
30856;BME280;17570;0.000;0.000;2023-03-08T09:33:35;96271.92;;;16.30;30.04
30856;BME280;17570;0.000;0.000;2023-03-08T09:36:03;96263.64;;;17.61;29.90
30856;BME280;17570;0.000;0.000;2023-03-08T09:38:30;96259.50;;;19.17;25.78
30856;BME280;17570;0.000;0.000;2023-03-08T09:41:05;96253.03;;;20.08;25.63
30856;BME280;17570;0.000;0.000;2023-03-08T09:43:35;96256.80;;;20.54;25.04
30856;BME280;17570;0.000;0.000;2023-03-08T09:45:56;96260.65;;;20.78;24.82
30856;BME280;17570;0.000;0.000;2023-03-08T09:48:28;96260.25;;;20.94;25.06
30856;BME280;17570;0.000;0.000;2023-03-08T09:51:01;96245.40;;;21.06;25.04
30856;BME280;17570;0.000;0.000;2023-03-08T09:56:18;96254.30;;;21.25;26.01
30856;BME280;17570;0.000;0.000;2023-03-08T09:58:41;96255.92;;;21.46;23.96
30856;BME280;17570;0.000;0.000;2023-03-08T10:01:18;96256.20;;;21.76;24.82
30856;BME280;17570;0.000;0.000;2023-03-08T10:04:02;96248.00;;;21.91;24.97
30856;BME280;17570;0.000;0.000;2023-03-08T10:06:38;96239.84;;;21.99;24.64
30856;BME280;17570;0.000;0.000;2023-03-08T10:09:09;96249.14;;;22.08;25.48
30856;BME280;17570;0.000;0.000;2023-03-08T10:11:35;96243.42;;;22.18;24.20
30856;BME280;17570;0.000;0.000;2023-03-08T10:14:13;96242.54;;;22.31;24.52
30856;BME280;17570;0.000;0.000;2023-03-08T10:16:41;96236.55;;;22.42;24.57
30856;BME280;17570;0.000;0.000;2023-03-08T10:21:40;96238.23;;;22.61;23.84
30856;BME280;17570;0.000;0.000;2023-03-08T10:24:17;96237.94;;;22.76;23.86
30856;BME280;17570;0.000;0.000;2023-03-08T10:26:44;96237.78;;;22.96;23.89
30856;BME280;17570;0.000;0.000;2023-03-08T10:29:11;96227.23;;;23.14;24.24
30856;BME280;17570;0.000;0.000;2023-03-08T10:31:41;96234.30;;;23.39;25.56
30856;BME280;17570;0.000;0.000;2023-03-08T10:34:15;96235.33;;;23.56;23.94
30856;BME280;17570;0.000;0.000;2023-03-08T10:36:52;96231.52;;;23.71;23.51
30856;BME280;17570;0.000;0.000;2023-03-08T10:39:15;96236.53;;;23.79;23.93
30856;BME280;17570;0.000;0.000;2023-03-08T10:41:46;96230.09;;;23.86;23.54
30856;BME280;17570;0.000;0.000;2023-03-08T10:44:15;96228.98;;;23.94;23.04
30856;BME280;17570;0.000;0.000;2023-03-08T10:46:50;96217.42;;;24.18;21.91
30856;BME280;17570;0.000;0.000;2023-03-08T10:49:16;96213.37;;;24.46;23.10
30856;BME280;17570;0.000;0.000;2023-03-08T10:51:50;96211.34;;;24.72;24.68
30856;BME280;17570;0.000;0.000;2023-03-08T10:54:18;96215.50;;;24.91;27.01
30856;BME280;17570;0.000;0.000;2023-03-08T10:56:57;96210.77;;;25.05;25.42
30856;BME280;17570;0.000;0.000;2023-03-08T10:59:29;96203.16;;;25.20;24.47
30856;BME280;17570;0.000;0.000;2023-03-08T11:04:51;96201.71;;;25.53;24.96
30856;BME280;17570;0.000;0.000;2023-03-08T11:07:21;96198.89;;;25.71;24.73
30856;BME280;17570;0.000;0.000;2023-03-08T11:10:02;96192.20;;;25.97;24.63
30856;BME280;17570;0.000;0.000;2023-03-08T11:12:25;96200.19;;;26.26;23.69
30856;BME280;17570;0.000;0.000;2023-03-08T11:14:50;96199.83;;;26.51;23.44
30856;BME280;17570;0.000;0.000;2023-03-08T11:17:27;96183.77;;;26.62;23.35
30856;BME280;17570;0.000;0.000;2023-03-08T11:20:01;96176.25;;;26.76;23.30
30856;BME280;17570;0.000;0.000;2023-03-08T11:25:13;96178.24;;;27.19;21.82
30856;BME280;17570;0.000;0.000;2023-03-08T11:33:06;96171.15;;;27.08;20.67
30856;BME280;17570;0.000;0.000;2023-03-08T11:35:44;96171.85;;;27.04;18.80
30856;BME280;17570;0.000;0.000;2023-03-08T11:38:13;96168.70;;;27.07;17.49
30856;BME280;17570;0.000;0.000;2023-03-08T11:40:45;96172.36;;;27.01;18.00
30856;BME280;17570;0.000;0.000;2023-03-08T11:43:14;96155.33;;;27.02;16.88
30856;BME280;17570;0.000;0.000;2023-03-08T11:48:33;96162.13;;;27.09;17.40
30856;BME280;17570;0.000;0.000;2023-03-08T11:51:09;96156.12;;;27.02;17.65
30856;BME280;17570;0.000;0.000;2023-03-08T11:53:44;96155.67;;;26.88;16.84
30856;BME280;17570;0.000;0.000;2023-03-08T11:58:53;96149.40;;;26.78;16.80
30856;BME280;17570;0.000;0.000;2023-03-08T12:01:21;96144.80;;;26.73;17.23
30856;BME280;17570;0.000;0.000;2023-03-08T12:06:29;96151.99;;;26.73;17.87
30856;BME280;17570;0.000;0.000;2023-03-08T12:09:03;96146.20;;;26.59;17.97
30856;BME280;17570;0.000;0.000;2023-03-08T12:13:56;96143.45;;;26.54;18.03
30856;BME280;17570;0.000;0.000;2023-03-08T12:19:13;96140.09;;;26.80;19.85
30856;BME280;17570;0.000;0.000;2023-03-08T12:21:44;96135.48;;;27.09;20.81
30856;BME280;17570;0.000;0.000;2023-03-08T12:26:43;96132.15;;;27.90;21.78
30856;BME280;17570;0.000;0.000;2023-03-08T12:29:21;96127.59;;;28.17;21.54
30856;BME280;17570;0.000;0.000;2023-03-08T12:31:46;96126.98;;;28.37;21.59
30856;BME280;17570;0.000;0.000;2023-03-08T12:36:59;96118.42;;;28.72;20.80
30856;BME280;17570;0.000;0.000;2023-03-08T12:39:28;96131.78;;;28.72;20.67
30856;BME280;17570;0.000;0.000;2023-03-08T12:44:30;96130.15;;;28.71;17.09
30856;BME280;17570;0.000;0.000;2023-03-08T12:46:59;96130.86;;;28.57;16.30
30856;BME280;17570;0.000;0.000;2023-03-08T12:49:34;96139.03;;;28.40;15.90
30856;BME280;17570;0.000;0.000;2023-03-08T12:52:04;96124.41;;;28.20;15.07
30856;BME280;17570;0.000;0.000;2023-03-08T12:54:32;96127.36;;;27.92;15.26
30856;BME280;17570;0.000;0.000;2023-03-08T12:57:01;96126.67;;;27.75;14.97
30856;BME280;17570;0.000;0.000;2023-03-08T12:59:36;96131.04;;;27.64;15.71
30856;BME280;17570;0.000;0.000;2023-03-08T13:02:24;96131.30;;;27.62;15.71
30856;BME280;17570;0.000;0.000;2023-03-08T13:07:35;96127.91;;;27.45;16.39
30856;BME280;17570;0.000;0.000;2023-03-08T13:10:21;96124.92;;;27.41;16.01
30856;BME280;17570;0.000;0.000;2023-03-08T13:13:05;96122.66;;;27.28;14.77
30856;BME280;17570;0.000;0.000;2023-03-08T13:15:23;96124.83;;;27.09;15.37
30856;BME280;17570;0.000;0.000;2023-03-08T13:18:36;96132.63;;;26.99;15.45
30856;BME280;17570;0.000;0.000;2023-03-08T13:21:06;96135.23;;;26.94;15.58
30856;BME280;17570;0.000;0.000;2023-03-08T13:28:13;96133.77;;;26.64;15.21
30856;BME280;17570;0.000;0.000;2023-03-08T13:30:55;96123.44;;;26.51;15.07
30856;BME280;17570;0.000;0.000;2023-03-08T13:33:17;96124.39;;;26.62;16.71
30856;BME280;17570;0.000;0.000;2023-03-08T13:35:52;96126.05;;;26.85;17.11
30856;BME280;17570;0.000;0.000;2023-03-08T13:38:18;96128.36;;;26.98;16.85
30856;BME280;17570;0.000;0.000;2023-03-08T13:40:53;96126.72;;;27.14;18.10
30856;BME280;17570;0.000;0.000;2023-03-08T13:43:21;96124.63;;;27.16;17.25
30856;BME280;17570;0.000;0.000;2023-03-08T13:45:55;96129.70;;;27.17;17.26
30856;BME280;17570;0.000;0.000;2023-03-08T13:48:18;96115.84;;;27.15;16.49
30856;BME280;17570;0.000;0.000;2023-03-08T13:50:47;96117.03;;;27.08;16.33
30856;BME280;17570;0.000;0.000;2023-03-08T13:53:19;96120.44;;;27.03;16.35
30856;BME280;17570;0.000;0.000;2023-03-08T13:55:47;96116.59;;;26.94;16.01
30856;BME280;17570;0.000;0.000;2023-03-08T14:03:32;96116.66;;;26.60;16.58
30856;BME280;17570;0.000;0.000;2023-03-08T14:05:59;96117.78;;;26.64;16.80
30856;BME280;17570;0.000;0.000;2023-03-08T14:08:27;96119.72;;;26.69;16.33
30856;BME280;17570;0.000;0.000;2023-03-08T14:10:56;96116.87;;;26.76;17.01
30856;BME280;17570;0.000;0.000;2023-03-08T14:13:34;96118.57;;;26.82;17.27
30856;BME280;17570;0.000;0.000;2023-03-08T14:15:59;96120.66;;;26.80;17.64
30856;BME280;17570;0.000;0.000;2023-03-08T14:18:24;96114.72;;;26.73;16.37
30856;BME280;17570;0.000;0.000;2023-03-08T14:23:38;96123.91;;;26.65;17.11
30856;BME280;17570;0.000;0.000;2023-03-08T14:28:40;96117.94;;;26.41;18.64
30856;BME280;17570;0.000;0.000;2023-03-08T14:31:24;96117.53;;;26.32;17.50
30856;BME280;17570;0.000;0.000;2023-03-08T14:34:01;96115.77;;;26.21;17.99
30856;BME280;17570;0.000;0.000;2023-03-08T14:36:24;96119.69;;;26.02;17.94
30856;BME280;17570;0.000;0.000;2023-03-08T14:38:52;96121.37;;;25.91;18.52
30856;BME280;17570;0.000;0.000;2023-03-08T14:41:28;96126.05;;;25.84;18.97
30856;BME280;17570;0.000;0.000;2023-03-08T14:43:48;96122.72;;;25.77;18.56
30856;BME280;17570;0.000;0.000;2023-03-08T14:46:17;96124.36;;;25.66;19.09
30856;BME280;17570;0.000;0.000;2023-03-08T14:48:54;96118.37;;;25.59;19.03
30856;BME280;17570;0.000;0.000;2023-03-08T14:53:56;96123.06;;;25.40;19.42
30856;BME280;17570;0.000;0.000;2023-03-08T14:56:24;96117.80;;;25.28;19.60
30856;BME280;17570;0.000;0.000;2023-03-08T14:58:52;96115.50;;;25.20;19.46
30856;BME280;17570;0.000;0.000;2023-03-08T15:01:23;96104.78;;;25.15;19.65
30856;BME280;17570;0.000;0.000;2023-03-08T15:03:54;96105.23;;;25.12;20.04
30856;BME280;17570;0.000;0.000;2023-03-08T15:06:29;96103.95;;;25.03;19.83
30856;BME280;17570;0.000;0.000;2023-03-08T15:08:51;96103.51;;;24.94;20.58
30856;BME280;17570;0.000;0.000;2023-03-08T15:11:22;96110.56;;;24.88;20.94
30856;BME280;17570;0.000;0.000;2023-03-08T15:13:50;96114.41;;;24.81;20.88
30856;BME280;17570;0.000;0.000;2023-03-08T15:16:17;96107.34;;;24.75;21.29
30856;BME280;17570;0.000;0.000;2023-03-08T15:18:47;96107.00;;;24.71;20.71
30856;BME280;17570;0.000;0.000;2023-03-08T15:21:19;96111.63;;;24.64;20.94
30856;BME280;17570;0.000;0.000;2023-03-08T15:23:46;96115.67;;;24.55;21.41
30856;BME280;17570;0.000;0.000;2023-03-08T15:26:21;96117.41;;;24.49;21.55
30856;BME280;17570;0.000;0.000;2023-03-08T15:28:46;96116.70;;;24.42;21.52
30856;BME280;17570;0.000;0.000;2023-03-08T15:31:14;96123.14;;;24.34;22.02
30856;BME280;17570;0.000;0.000;2023-03-08T15:33:41;96124.27;;;24.27;22.10
30856;BME280;17570;0.000;0.000;2023-03-08T15:36:12;96114.11;;;24.24;22.42
30856;BME280;17570;0.000;0.000;2023-03-08T15:38:40;96117.93;;;24.16;23.21
30856;BME280;17570;0.000;0.000;2023-03-08T15:41:12;96116.41;;;24.08;23.23
30856;BME280;17570;0.000;0.000;2023-03-08T15:43:40;96115.69;;;24.01;23.45
30856;BME280;17570;0.000;0.000;2023-03-08T15:46:11;96112.91;;;23.96;24.07
30856;BME280;17570;0.000;0.000;2023-03-08T15:48:38;96126.84;;;23.91;23.80
30856;BME280;17570;0.000;0.000;2023-03-08T15:51:10;96125.42;;;23.77;23.33
30856;BME280;17570;0.000;0.000;2023-03-08T15:53:35;96133.24;;;23.72;23.82
30856;BME280;17570;0.000;0.000;2023-03-08T15:56:02;96136.13;;;23.71;24.08
30856;BME280;17570;0.000;0.000;2023-03-08T15:58:32;96135.59;;;23.62;24.06
30856;BME280;17570;0.000;0.000;2023-03-08T16:00:59;96132.45;;;23.53;23.82
30856;BME280;17570;0.000;0.000;2023-03-08T16:03:30;96135.19;;;23.47;24.44
30856;BME280;17570;0.000;0.000;2023-03-08T16:05:57;96143.67;;;23.37;25.53
30856;BME280;17570;0.000;0.000;2023-03-08T16:08:25;96151.02;;;23.35;25.12
30856;BME280;17570;0.000;0.000;2023-03-08T16:10:54;96147.05;;;23.26;25.10
30856;BME280;17570;0.000;0.000;2023-03-08T16:13:22;96141.33;;;23.10;25.14
30856;BME280;17570;0.000;0.000;2023-03-08T16:15:51;96137.50;;;23.06;26.06
30856;BME280;17570;0.000;0.000;2023-03-08T16:18:18;96131.25;;;23.01;25.83
30856;BME280;17570;0.000;0.000;2023-03-08T16:20:46;96138.82;;;22.97;26.65